Time;durP1;ratioP1;P1;durP2;ratioP2;P2;SDS_P1;SDS_P2;PMS_P1;PMS_P2;Temp;Humidity;BMP_temperature;BMP_pressure;BME280_temperature;BME280_humidity;BME280_pressure;Samples;Min_cycle;Max_cycle;Signal;HPM_P1;HPM_P2
2022/02/25 00:01:16;;;;;;;15.93;9.02;;;;;;;;;;4897815;29;20028;-78
2022/02/25 00:03:42;;;;;;;19.60;8.90;;;;;;;;;;4919299;29;20119;-76
2022/02/25 00:06:08;;;;;;;16.33;7.93;;;;;;;;;;4918646;29;20008;-75
2022/02/25 00:08:37;;;;;;;18.40;8.52;;;;;;;;;;4921249;29;20043;-76
2022/02/25 00:11:04;;;;;;;35.65;18.10;;;;;;;;;;4920511;29;20036;-75
2022/02/25 00:13:30;;;;;;;22.73;11.23;;;;;;;;;;4906157;29;20031;-76
2022/02/25 00:15:57;;;;;;;21.92;10.52;;;;;;;;;;4923738;29;20063;-78
2022/02/25 00:18:26;;;;;;;23.20;11.32;;;;;;;;;;4923715;29;20035;-74
2022/02/25 00:21:05;;;;;;;24.08;12.18;;;;;;;;;;4906570;29;20552;-75
2022/02/25 00:23:31;;;;;;;13.68;7.78;;;;;;;;;;4915672;29;20472;-74
2022/02/25 00:25:57;;;;;;;23.33;10.75;;;;;;;;;;4920277;29;20034;-75
2022/02/25 00:28:23;;;;;;;23.50;11.23;;;;;;;;;;4918494;29;20040;-76
2022/02/25 00:30:49;;;;;;;19.20;9.35;;;;;;;;;;4919561;29;20035;-75
2022/02/25 00:33:16;;;;;;;18.85;9.32;;;;;;;;;;4919237;29;20153;-75
2022/02/25 00:35:45;;;;;;;19.42;9.48;;;;;;;;;;4921945;29;20055;-75
2022/02/25 00:38:11;;;;;;;12.90;6.82;;;;;;;;;;4926207;29;20099;-75
2022/02/25 00:40:37;;;;;;;16.58;7.32;;;;;;;;;;4926006;29;20086;-75
2022/02/25 00:43:03;;;;;;;12.77;7.70;;;;;;;;;;4928161;29;20175;-75
2022/02/25 00:45:29;;;;;;;15.95;7.88;;;;;;;;;;4930021;29;20561;-75
2022/02/25 00:47:55;;;;;;;12.45;6.72;;;;;;;;;;4923030;29;20118;-74
2022/02/25 00:50:22;;;;;;;11.73;5.70;;;;;;;;;;4911638;29;20024;-78
2022/02/25 00:52:52;;;;;;;11.43;4.80;;;;;;;;;;4925402;29;20398;-76
2022/02/25 00:55:18;;;;;;;13.75;5.20;;;;;;;;;;4928347;29;20001;-75
2022/02/25 00:57:45;;;;;;;10.30;5.05;;;;;;;;;;4925536;29;20048;-77
2022/02/25 01:00:12;;;;;;;16.08;6.30;;;;;;;;;;4924803;29;20036;-75
2022/02/25 01:02:38;;;;;;;13.52;5.95;;;;;;;;;;4924959;29;20440;-76
2022/02/25 01:05:12;;;;;;;10.60;5.57;;;;;;;;;;4926464;29;20548;-74
2022/02/25 01:07:39;;;;;;;11.70;4.88;;;;;;;;;;4922997;29;20028;-74
2022/02/25 01:10:06;;;;;;;11.25;5.20;;;;;;;;;;4922379;29;20090;-75
2022/02/25 01:12:33;;;;;;;14.57;5.47;;;;;;;;;;4926638;29;20031;-75
2022/02/25 01:14:59;;;;;;;10.90;4.80;;;;;;;;;;4921452;29;20107;-75
2022/02/25 01:17:25;;;;;;;8.63;4.28;;;;;;;;;;4922819;29;20024;-75
2022/02/25 01:19:57;;;;;;;11.85;5.10;;;;;;;;;;4922576;29;20040;-75
2022/02/25 01:22:35;;;;;;;12.32;5.43;;;;;;;;;;4924225;29;20029;-77
2022/02/25 01:25:01;;;;;;;8.25;4.43;;;;;;;;;;4922521;29;20034;-76
2022/02/25 01:27:28;;;;;;;14.90;5.40;;;;;;;;;;4923876;29;20490;-74
2022/02/25 01:29:54;;;;;;;9.75;4.30;;;;;;;;;;4923783;29;20510;-74
2022/02/25 01:32:20;;;;;;;9.82;4.15;;;;;;;;;;4922167;29;20032;-73
2022/02/25 01:34:46;;;;;;;9.38;3.85;;;;;;;;;;4924676;29;20028;-76
2022/02/25 01:37:12;;;;;;;10.57;4.25;;;;;;;;;;4926141;29;20076;-75
2022/02/25 01:39:41;;;;;;;7.63;4.18;;;;;;;;;;4923858;29;20036;-78
2022/02/25 01:42:07;;;;;;;9.75;4.30;;;;;;;;;;4924010;29;20052;-75
2022/02/25 01:44:38;;;;;;;7.07;3.92;;;;;;;;;;4923774;29;20027;-75
2022/02/25 01:47:04;;;;;;;7.35;3.92;;;;;;;;;;4923510;29;20362;-74
2022/02/25 01:49:32;;;;;;;9.85;4.82;;;;;;;;;;4921856;29;20103;-75
2022/02/25 01:52:17;;;;;;;13.27;4.70;;;;;;;;;;4923483;29;20088;-75
2022/02/25 01:54:44;;;;;;;13.63;5.85;;;;;;;;;;4921852;29;20394;-74
2022/02/25 01:57:11;;;;;;;10.82;4.72;;;;;;;;;;4922414;29;20135;-74
2022/02/25 01:59:37;;;;;;;9.45;4.28;;;;;;;;;;4911965;29;20047;-80
2022/02/25 02:02:04;;;;;;;10.05;4.75;;;;;;;;;;4930577;29;20050;-74
2022/02/25 02:04:30;;;;;;;8.65;4.55;;;;;;;;;;4921134;29;20020;-73
2022/02/25 02:06:56;;;;;;;11.80;4.93;;;;;;;;;;4921257;29;20028;-73
2022/02/25 02:09:23;;;;;;;9.70;4.15;;;;;;;;;;4921855;29;20036;-75
2022/02/25 02:11:50;;;;;;;10.05;5.22;;;;;;;;;;4919488;29;20038;-73
2022/02/25 02:14:19;;;;;;;10.63;5.43;;;;;;;;;;4926554;29;20028;-74
2022/02/25 02:16:46;;;;;;;10.80;4.38;;;;;;;;;;4921624;29;20498;-74
2022/02/25 02:19:13;;;;;;;8.93;4.47;;;;;;;;;;4907261;29;20060;-74
2022/02/25 02:21:43;;;;;;;11.20;4.28;;;;;;;;;;4924328;29;20485;-74
2022/02/25 02:24:09;;;;;;;9.93;4.97;;;;;;;;;;4926961;29;20096;-73
2022/02/25 02:26:37;;;;;;;8.07;4.80;;;;;;;;;;4931003;29;20008;-74
2022/02/25 02:29:04;;;;;;;8.70;4.13;;;;;;;;;;4921797;29;20064;-73
2022/02/25 02:31:30;;;;;;;8.57;4.28;;;;;;;;;;4929061;29;20393;-75
2022/02/25 02:33:56;;;;;;;8.73;4.40;;;;;;;;;;4927207;29;20032;-74
2022/02/25 02:36:24;;;;;;;11.27;4.10;;;;;;;;;;4924054;29;20112;-74
2022/02/25 02:38:52;;;;;;;10.32;4.53;;;;;;;;;;4904153;29;20060;-74
2022/02/25 02:41:18;;;;;;;10.38;4.70;;;;;;;;;;4925213;29;20036;-75
2022/02/25 02:43:46;;;;;;;9.50;4.40;;;;;;;;;;4923789;29;20063;-77
2022/02/25 02:46:13;;;;;;;10.30;4.03;;;;;;;;;;4922975;29;20051;-75
2022/02/25 02:48:40;;;;;;;6.75;4.00;;;;;;;;;;4926590;29;20042;-74
2022/02/25 02:51:06;;;;;;;11.93;4.60;;;;;;;;;;4921369;29;20055;-75
2022/02/25 02:53:32;;;;;;;10.25;4.20;;;;;;;;;;4924598;29;20071;-74
2022/02/25 02:55:58;;;;;;;9.40;4.68;;;;;;;;;;4921432;29;20032;-75
2022/02/25 02:58:24;;;;;;;8.13;4.18;;;;;;;;;;4902662;29;20402;-75
2022/02/25 03:00:51;;;;;;;9.45;4.57;;;;;;;;;;4920672;29;20506;-75
2022/02/25 03:03:18;;;;;;;10.25;4.32;;;;;;;;;;4919618;29;20028;-75
2022/02/25 03:05:44;;;;;;;7.55;3.92;;;;;;;;;;4923640;29;20099;-75
2022/02/25 03:08:11;;;;;;;21.77;5.80;;;;;;;;;;4921908;29;20044;-74
2022/02/25 03:10:38;;;;;;;9.98;4.47;;;;;;;;;;4922607;29;20028;-74
2022/02/25 03:13:05;;;;;;;14.95;6.20;;;;;;;;;;4920301;29;20052;-74
2022/02/25 03:15:31;;;;;;;14.30;5.63;;;;;;;;;;4923508;29;20043;-75
2022/02/25 03:17:58;;;;;;;10.10;4.93;;;;;;;;;;4911724;29;20067;-74
2022/02/25 03:20:24;;;;;;;8.80;4.65;;;;;;;;;;4922266;29;20032;-75
2022/02/25 03:22:51;;;;;;;10.15;4.18;;;;;;;;;;4921244;29;20076;-74
2022/02/25 03:25:19;;;;;;;9.13;4.03;;;;;;;;;;4920896;29;20039;-74
2022/02/25 03:27:48;;;;;;;8.75;3.90;;;;;;;;;;4923518;29;20047;-75
2022/02/25 03:30:14;;;;;;;8.35;4.20;;;;;;;;;;4925704;29;20042;-74
2022/02/25 03:32:44;;;;;;;9.20;4.10;;;;;;;;;;4920696;29;20020;-77
2022/02/25 03:35:11;;;;;;;8.95;4.57;;;;;;;;;;4923388;29;20032;-74
2022/02/25 03:37:37;;;;;;;9.45;4.70;;;;;;;;;;4924185;29;20021;-75
2022/02/25 03:40:04;;;;;;;13.93;5.40;;;;;;;;;;4922043;29;20115;-75
2022/02/25 03:42:30;;;;;;;8.43;4.70;;;;;;;;;;4909475;29;20208;-74
2022/02/25 03:44:58;;;;;;;10.70;5.25;;;;;;;;;;4925774;29;20060;-77
2022/02/25 03:47:24;;;;;;;9.20;4.47;;;;;;;;;;4926518;29;20032;-75
2022/02/25 03:49:50;;;;;;;10.35;5.30;;;;;;;;;;4924159;29;20036;-75
2022/02/25 03:52:18;;;;;;;20.80;9.45;;;;;;;;;;4916112;29;20049;-76
2022/02/25 03:54:44;;;;;;;15.27;6.70;;;;;;;;;;4908506;29;20028;-74
2022/02/25 03:57:11;;;;;;;13.27;7.45;;;;;;;;;;4919087;29;20028;-76
2022/02/25 03:59:39;;;;;;;11.55;5.75;;;;;;;;;;4920849;29;20510;-75
2022/02/25 04:02:05;;;;;;;10.18;5.72;;;;;;;;;;4924534;29;20024;-75
2022/02/25 04:04:31;;;;;;;10.60;5.85;;;;;;;;;;4924033;29;20037;-74
2022/02/25 04:06:57;;;;;;;9.10;5.60;;;;;;;;;;4920402;29;20012;-76
2022/02/25 04:09:23;;;;;;;8.52;4.30;;;;;;;;;;4923288;29;20071;-76
2022/02/25 04:11:50;;;;;;;7.55;3.65;;;;;;;;;;4915332;29;20051;-74
2022/02/25 04:14:20;;;;;;;14.00;6.75;;;;;;;;;;4923063;29;20063;-74
2022/02/25 04:16:49;;;;;;;12.50;4.93;;;;;;;;;;4910724;29;20040;-73
2022/02/25 04:19:15;;;;;;;13.18;4.90;;;;;;;;;;4921642;29;20058;-74
2022/02/25 04:21:42;;;;;;;8.85;4.72;;;;;;;;;;4917176;29;20024;-77
2022/02/25 04:24:08;;;;;;;9.38;4.50;;;;;;;;;;4916569;29;20050;-75
2022/02/25 04:26:37;;;;;;;12.00;4.78;;;;;;;;;;4921424;29;20020;-74
2022/02/25 04:29:04;;;;;;;9.68;4.97;;;;;;;;;;4917705;29;20403;-74
2022/02/25 04:31:30;;;;;;;12.60;4.55;;;;;;;;;;4918472;29;20055;-74
2022/02/25 04:33:56;;;;;;;10.25;5.40;;;;;;;;;;4922822;29;20106;-76
2022/02/25 04:36:22;;;;;;;10.70;5.10;;;;;;;;;;4917264;29;20016;-75
2022/02/25 04:38:49;;;;;;;14.32;5.65;;;;;;;;;;4916502;29;20076;-74
2022/02/25 04:41:15;;;;;;;16.08;8.73;;;;;;;;;;4922384;29;20497;-75
2022/02/25 04:43:45;;;;;;;20.48;12.43;;;;;;;;;;4917600;29;20032;-74
2022/02/25 04:46:21;;;;;;;14.35;8.20;;;;;;;;;;4921482;29;20062;-74
2022/02/25 04:48:47;;;;;;;15.40;9.00;;;;;;;;;;4917508;29;20040;-76
2022/02/25 04:51:16;;;;;;;18.25;8.32;;;;;;;;;;4916529;29;20032;-76
2022/02/25 04:53:42;;;;;;;16.42;7.22;;;;;;;;;;4912234;29;20040;-75
2022/02/25 04:56:11;;;;;;;15.68;5.95;;;;;;;;;;4916232;29;20032;-77
2022/02/25 04:58:37;;;;;;;13.38;7.07;;;;;;;;;;4919943;29;20043;-74
2022/02/25 05:01:03;;;;;;;11.40;5.63;;;;;;;;;;4917024;29;20102;-74
2022/02/25 05:03:29;;;;;;;11.88;6.03;;;;;;;;;;4918292;29;20059;-75
2022/02/25 05:05:56;;;;;;;10.45;5.63;;;;;;;;;;4918822;29;20042;-74
2022/02/25 05:08:22;;;;;;;12.60;5.60;;;;;;;;;;4917949;29;20044;-76
2022/02/25 05:10:48;;;;;;;12.10;5.57;;;;;;;;;;4917712;29;20048;-74
2022/02/25 05:13:14;;;;;;;13.50;5.97;;;;;;;;;;4921368;29;20088;-74
2022/02/25 05:21:10;;;;;;;18.95;10.60;;;;;;;;;;4913430;29;20038;-75
2022/02/25 05:23:43;;;;;;;21.73;11.02;;;;;;;;;;4917609;29;20036;-74
2022/02/25 05:26:09;;;;;;;21.38;11.48;;;;;;;;;;4914672;29;20513;-74
2022/02/25 05:28:36;;;;;;;23.65;12.18;;;;;;;;;;4919866;29;20092;-75
2022/02/25 05:31:02;;;;;;;29.55;14.13;;;;;;;;;;4931441;29;20028;-73
2022/02/25 05:33:31;;;;;;;25.73;11.57;;;;;;;;;;4923243;29;20024;-75
2022/02/25 05:35:57;;;;;;;14.52;9.13;;;;;;;;;;4921923;29;20984;-74
2022/02/25 05:38:25;;;;;;;18.58;8.60;;;;;;;;;;4927023;29;20060;-74
2022/02/25 05:40:53;;;;;;;20.02;8.40;;;;;;;;;;4925308;29;20032;-76
2022/02/25 05:43:19;;;;;;;15.88;7.18;;;;;;;;;;4926287;29;20073;-75
2022/02/25 05:45:45;;;;;;;12.32;6.45;;;;;;;;;;4928305;29;20025;-76
2022/02/25 05:48:11;;;;;;;11.70;6.25;;;;;;;;;;4922435;29;20110;-75
2022/02/25 05:50:37;;;;;;;23.65;11.10;;;;;;;;;;4921361;29;20513;-74
2022/02/25 05:53:03;;;;;;;20.83;8.30;;;;;;;;;;4923717;29;20107;-74
2022/02/25 05:55:29;;;;;;;27.25;11.30;;;;;;;;;;4926103;29;20035;-78
2022/02/25 05:57:56;;;;;;;25.35;10.00;;;;;;;;;;4921333;29;20076;-74
2022/02/25 06:00:22;;;;;;;22.48;8.90;;;;;;;;;;4920893;29;20083;-74
2022/02/25 06:02:49;;;;;;;25.33;10.35;;;;;;;;;;4937585;29;20096;-74
2022/02/25 06:05:28;;;;;;;50.42;20.63;;;;;;;;;;4922245;29;20031;-73
2022/02/25 06:08:00;;;;;;;48.50;19.83;;;;;;;;;;4920905;29;20040;-78
2022/02/25 06:10:27;;;;;;;46.47;20.08;;;;;;;;;;4924391;29;20044;-76
2022/02/25 06:12:54;;;;;;;38.85;17.25;;;;;;;;;;4921240;29;20031;-72
2022/02/25 06:15:20;;;;;;;30.08;12.48;;;;;;;;;;4921852;29;20034;-71
2022/02/25 06:17:47;;;;;;;30.23;11.52;;;;;;;;;;4922209;29;20060;-72
2022/02/25 06:20:14;;;;;;;26.05;12.82;;;;;;;;;;4919256;29;20028;-72
2022/02/25 06:22:40;;;;;;;27.15;11.40;;;;;;;;;;4898917;29;20399;-74
2022/02/25 06:25:07;;;;;;;29.30;12.68;;;;;;;;;;4917794;29;20028;-73
2022/02/25 06:27:33;;;;;;;32.63;11.63;;;;;;;;;;4915830;29;20028;-72
2022/02/25 06:29:59;;;;;;;27.23;11.60;;;;;;;;;;4929449;29;20040;-77
2022/02/25 06:32:27;;;;;;;26.25;12.65;;;;;;;;;;4930652;29;20072;-77
2022/02/25 06:34:53;;;;;;;27.73;13.07;;;;;;;;;;4909944;29;20059;-72
2022/02/25 06:37:21;;;;;;;37.40;18.40;;;;;;;;;;4928325;29;20016;-78
2022/02/25 06:39:48;;;;;;;34.03;17.30;;;;;;;;;;4927059;29;20032;-76
2022/02/25 06:42:15;;;;;;;30.17;14.75;;;;;;;;;;4924209;29;20043;-77
2022/02/25 06:44:41;;;;;;;24.15;14.70;;;;;;;;;;4923897;29;20036;-75
2022/02/25 06:47:07;;;;;;;30.52;13.77;;;;;;;;;;4921373;29;20024;-71
2022/02/25 06:49:53;;;;;;;27.77;13.45;;;;;;;;;;4917960;29;20506;-72
2022/02/25 06:52:19;;;;;;;21.23;11.35;;;;;;;;;;4920724;29;20131;-74
2022/02/25 06:54:47;;;;;;;17.92;11.63;;;;;;;;;;4918443;29;20024;-71
2022/02/25 06:57:14;;;;;;;26.20;10.27;;;;;;;;;;4900216;29;20467;-76
2022/02/25 06:59:40;;;;;;;30.77;18.17;;;;;;;;;;4917356;29;20062;-77
2022/02/25 07:02:08;;;;;;;28.10;15.57;;;;;;;;;;4916934;29;20020;-74
2022/02/25 07:04:34;;;;;;;24.48;16.67;;;;;;;;;;4910399;29;20037;-73
2022/02/25 07:07:00;;;;;;;18.02;11.07;;;;;;;;;;4916432;29;20016;-71
2022/02/25 07:09:26;;;;;;;24.45;11.15;;;;;;;;;;4917489;29;20111;-71
2022/02/25 07:11:52;;;;;;;22.73;10.23;;;;;;;;;;4917144;29;20056;-71
2022/02/25 07:14:19;;;;;;;28.48;10.43;;;;;;;;;;4916027;29;20091;-76
2022/02/25 07:16:45;;;;;;;32.20;11.13;;;;;;;;;;4916662;29;20035;-70
2022/02/25 07:19:11;;;;;;;20.10;10.57;;;;;;;;;;4915947;29;20099;-75
2022/02/25 07:21:38;;;;;;;21.42;9.50;;;;;;;;;;4916769;29;20040;-73
2022/02/25 07:24:04;;;;;;;22.77;10.48;;;;;;;;;;4916513;29;20035;-73
2022/02/25 07:26:30;;;;;;;22.33;10.70;;;;;;;;;;4915994;29;20115;-73
2022/02/25 07:28:56;;;;;;;18.83;8.70;;;;;;;;;;4900478;29;20033;-70
2022/02/25 07:31:23;;;;;;;17.80;9.25;;;;;;;;;;4917473;29;20032;-72
2022/02/25 07:33:49;;;;;;;17.92;10.00;;;;;;;;;;4916011;29;20104;-69
2022/02/25 07:36:15;;;;;;;23.50;11.38;;;;;;;;;;4905597;29;20028;-73
2022/02/25 07:38:41;;;;;;;24.95;10.45;;;;;;;;;;4915197;29;20020;-73
2022/02/25 07:41:07;;;;;;;26.23;13.05;;;;;;;;;;4894540;29;20394;-74
2022/02/25 07:43:33;;;;;;;29.25;14.48;;;;;;;;;;4916214;29;20032;-71
2022/02/25 07:46:04;;;;;;;23.27;13.73;;;;;;;;;;4916027;29;20047;-74
2022/02/25 07:48:32;;;;;;;27.38;15.10;;;;;;;;;;4916417;29;20052;-72
2022/02/25 07:50:58;;;;;;;24.52;14.88;;;;;;;;;;4915765;29;20032;-77
2022/02/25 07:53:24;;;;;;;25.35;13.55;;;;;;;;;;4914671;29;20126;-77
2022/02/25 07:55:50;;;;;;;31.73;15.75;;;;;;;;;;4916421;29;20440;-76
2022/02/25 07:58:17;;;;;;;38.58;23.50;;;;;;;;;;4899741;29;20072;-80
2022/02/25 08:00:43;;;;;;;47.17;27.30;;;;;;;;;;4915464;29;20031;-76
2022/02/25 08:03:09;;;;;;;32.60;20.50;;;;;;;;;;4916925;29;20027;-74
2022/02/25 08:05:36;;;;;;;25.80;14.60;;;;;;;;;;4916368;29;20121;-84
2022/02/25 08:08:07;;;;;;;28.52;13.80;;;;;;;;;;4898889;29;20024;-79
2022/02/25 08:10:52;;;;;;;29.85;14.05;;;;;;;;;;4899413;29;20455;-83
2022/02/25 08:13:18;;;;;;;23.85;15.25;;;;;;;;;;4916593;29;20032;-81
2022/02/25 08:15:44;;;;;;;25.52;18.90;;;;;;;;;;4910921;29;20055;-79
2022/02/25 08:18:10;;;;;;;26.63;16.02;;;;;;;;;;4916173;29;20020;-82
2022/02/25 08:20:37;;;;;;;19.50;13.38;;;;;;;;;;4916483;29;20071;-79
2022/02/25 08:23:04;;;;;;;20.33;12.27;;;;;;;;;;4899429;29;20159;-82
2022/02/25 08:25:30;;;;;;;26.25;14.45;;;;;;;;;;4912106;29;20028;-84
2022/02/25 08:27:57;;;;;;;22.83;11.35;;;;;;;;;;4916303;29;20076;-77
2022/02/25 08:30:23;;;;;;;29.45;17.33;;;;;;;;;;4916369;29;20039;-81
2022/02/25 08:32:50;;;;;;;22.70;12.50;;;;;;;;;;4916246;29;20025;-80
2022/02/25 08:35:17;;;;;;;26.08;15.20;;;;;;;;;;4915892;29;20032;-80
2022/02/25 08:37:43;;;;;;;16.42;9.00;;;;;;;;;;4916365;29;20020;-82
2022/02/25 08:40:10;;;;;;;18.65;11.25;;;;;;;;;;4916359;29;20029;-81
2022/02/25 08:42:37;;;;;;;29.90;16.67;;;;;;;;;;4916250;29;20036;-80
2022/02/25 08:45:08;;;;;;;17.90;10.32;;;;;;;;;;4916586;29;20526;-75
2022/02/25 08:47:34;;;;;;;13.38;9.05;;;;;;;;;;4915804;29;20024;-82
2022/02/25 08:50:00;;;;;;;29.38;14.70;;;;;;;;;;4916355;29;20044;-83
2022/02/25 08:52:27;;;;;;;14.45;9.75;;;;;;;;;;4916349;29;20055;-77
2022/02/25 08:54:53;;;;;;;14.63;8.85;;;;;;;;;;4916250;29;20387;-78
2022/02/25 08:57:19;;;;;;;28.38;14.95;;;;;;;;;;4916107;29;20103;-80
2022/02/25 08:59:45;;;;;;;19.33;10.75;;;;;;;;;;4916560;29;20032;-86
2022/02/25 09:02:11;;;;;;;23.17;12.43;;;;;;;;;;4916067;29;20071;-87
2022/02/25 09:04:38;;;;;;;22.20;11.63;;;;;;;;;;4916747;29;20479;-84
2022/02/25 09:07:04;;;;;;;28.10;13.88;;;;;;;;;;4935329;29;20052;-75
2022/02/25 09:09:31;;;;;;;14.00;7.95;;;;;;;;;;4936317;29;20044;-73
2022/02/25 09:12:01;;;;;;;19.05;10.32;;;;;;;;;;4907156;29;20028;-77
2022/02/25 09:14:31;;;;;;;17.02;8.43;;;;;;;;;;4909809;29;20076;-76
2022/02/25 09:16:58;;;;;;;17.00;7.25;;;;;;;;;;4925085;29;20032;-75
2022/02/25 09:19:24;;;;;;;10.80;6.32;;;;;;;;;;4934484;29;20058;-75
2022/02/25 09:21:50;;;;;;;12.55;7.40;;;;;;;;;;4934835;29;20032;-74
2022/02/25 09:24:19;;;;;;;15.52;7.95;;;;;;;;;;4919748;29;20036;-76
2022/02/25 09:26:46;;;;;;;15.50;8.70;;;;;;;;;;4930622;29;20095;-75
2022/02/25 09:29:13;;;;;;;18.83;10.30;;;;;;;;;;4871434;29;20045;-78
2022/02/25 09:31:41;;;;;;;13.10;7.10;;;;;;;;;;4870534;29;20045;-77
2022/02/25 09:34:09;;;;;;;16.23;9.80;;;;;;;;;;4869476;29;20193;-77
2022/02/25 09:36:35;;;;;;;14.15;8.60;;;;;;;;;;4866625;29;20487;-76
2022/02/25 09:39:01;;;;;;;21.75;13.60;;;;;;;;;;4880591;29;20041;-76
2022/02/25 09:41:27;;;;;;;19.30;10.23;;;;;;;;;;4880281;29;20384;-77
2022/02/25 09:43:53;;;;;;;14.40;9.00;;;;;;;;;;4864278;29;20189;-75
2022/02/25 09:46:34;;;;;;;15.57;9.50;;;;;;;;;;4877706;29;20013;-80
2022/02/25 09:49:01;;;;;;;13.73;8.68;;;;;;;;;;4881953;29;20065;-77
2022/02/25 09:51:52;;;;;;;15.15;7.97;;;;;;;;;;4889844;29;20058;-79
2022/02/25 09:54:18;;;;;;;19.83;12.05;;;;;;;;;;4859400;29;20078;-77
2022/02/25 09:56:46;;;;;;;24.30;10.35;;;;;;;;;;4854680;29;20046;-75
2022/02/25 09:59:13;;;;;;;14.73;8.13;;;;;;;;;;4836435;29;20038;-73
2022/02/25 10:01:39;;;;;;;19.55;10.45;;;;;;;;;;4886664;29;20037;-78
2022/02/25 10:04:22;;;;;;;16.35;8.00;;;;;;;;;;4892070;29;20033;-73
2022/02/25 10:06:56;;;;;;;17.42;9.68;;;;;;;;;;4877111;29;20153;-75
2022/02/25 10:09:56;;;;;;;16.10;9.40;;;;;;;;;;4874408;29;20553;-78
2022/02/25 10:12:23;;;;;;;17.80;9.05;;;;;;;;;;4897391;29;20503;-78
2022/02/25 10:14:51;;;;;;;15.65;10.00;;;;;;;;;;4892573;29;20057;-76
2022/02/25 10:17:21;;;;;;;19.58;9.85;;;;;;;;;;4888360;29;20032;-77
2022/02/25 10:20:03;;;;;;;16.75;8.77;;;;;;;;;;4894188;29;20097;-80
2022/02/25 10:22:39;;;;;;;15.40;9.85;;;;;;;;;;4880456;29;20062;-76
2022/02/25 10:25:11;;;;;;;20.10;11.05;;;;;;;;;;4903821;29;20044;-75
2022/02/25 10:27:42;;;;;;;23.25;11.77;;;;;;;;;;4910640;29;20044;-78
2022/02/25 10:30:14;;;;;;;25.40;11.15;;;;;;;;;;4915855;29;20040;-75
2022/02/25 10:32:42;;;;;;;20.88;11.70;;;;;;;;;;4899333;29;20029;-76
2022/02/25 10:35:20;;;;;;;26.90;15.43;;;;;;;;;;4900639;29;20029;-77
2022/02/25 10:38:04;;;;;;;22.00;13.95;;;;;;;;;;4901086;29;20396;-78
2022/02/25 10:40:30;;;;;;;;;;;;;;;;;;4896157;29;20043;-77
2022/02/25 10:42:56;;;;;;;26.45;10.88;;;;;;;;;;4900093;29;19911;-77
2022/02/25 10:45:49;;;;;;;17.67;10.38;;;;;;;;;;4909630;29;20028;-78
2022/02/25 10:48:18;;;;;;;18.25;9.35;;;;;;;;;;4981852;23;20075;-76
2022/02/25 10:50:57;;;;;;;17.77;10.02;;;;;;;;;;4939194;29;20043;-75
2022/02/25 10:53:28;;;;;;;21.05;8.95;;;;;;;;;;4937528;29;20490;-77
2022/02/25 10:56:14;;;;;;;17.05;10.02;;;;;;;;;;4943130;29;20107;-77
2022/02/25 10:59:14;;;;;;;20.65;9.38;;;;;;;;;;4928746;29;20032;-77
2022/02/25 11:01:43;;;;;;;20.98;9.73;;;;;;;;;;4895240;29;20092;-77
2022/02/25 11:04:12;;;;;;;16.15;9.50;;;;;;;;;;4906274;29;20055;-77
2022/02/25 11:06:38;;;;;;;21.05;10.40;;;;;;;;;;4901558;29;20064;-77
2022/02/25 11:09:05;;;;;;;23.05;10.85;;;;;;;;;;4899748;29;20127;-76
2022/02/25 11:11:33;;;;;;;15.13;9.43;;;;;;;;;;4905777;29;20056;-77
2022/02/25 11:14:15;;;;;;;16.67;11.05;;;;;;;;;;4904820;29;20056;-76
2022/02/25 11:16:45;;;;;;;19.73;11.95;;;;;;;;;;4890130;29;20045;-75
2022/02/25 11:19:11;;;;;;;21.33;10.80;;;;;;;;;;4896306;29;20401;-75
2022/02/25 11:21:38;;;;;;;18.63;10.38;;;;;;;;;;4904280;29;20074;-76
2022/02/25 11:24:04;;;;;;;20.02;11.80;;;;;;;;;;4909399;29;20093;-74
2022/02/25 11:26:30;;;;;;;19.15;11.18;;;;;;;;;;4896228;29;20028;-74
2022/02/25 11:29:15;;;;;;;17.40;9.68;;;;;;;;;;4897737;29;20400;-78
2022/02/25 11:31:43;;;;;;;16.83;10.05;;;;;;;;;;4904052;29;20049;-78
2022/02/25 11:34:10;;;;;;;16.83;10.30;;;;;;;;;;4887297;29;20302;-77
2022/02/25 11:36:46;;;;;;;21.50;12.82;;;;;;;;;;4904103;29;20025;-76
2022/02/25 11:39:21;;;;;;;21.83;10.82;;;;;;;;;;4898178;29;20111;-76
2022/02/25 11:41:52;;;;;;;17.77;10.15;;;;;;;;;;4899012;29;20069;-76
2022/02/25 11:44:18;;;;;;;18.45;10.45;;;;;;;;;;4908128;29;20051;-76
2022/02/25 11:46:48;;;;;;;18.67;10.68;;;;;;;;;;4921421;29;20047;-77
2022/02/25 11:49:19;;;;;;;19.80;10.63;;;;;;;;;;4941778;29;20047;-76
2022/02/25 11:51:55;;;;;;;18.88;11.02;;;;;;;;;;4933530;29;20129;-76
2022/02/25 11:54:26;;;;;;;22.05;12.02;;;;;;;;;;4933967;29;20517;-76
2022/02/25 11:57:04;;;;;;;24.77;15.48;;;;;;;;;;4922235;29;20389;-75
2022/02/25 11:59:33;;;;;;;19.05;9.27;;;;;;;;;;4940278;29;20024;-75
2022/02/25 12:02:10;;;;;;;15.07;8.75;;;;;;;;;;4926691;29;20077;-74
2022/02/25 12:04:42;;;;;;;15.40;9.40;;;;;;;;;;4921174;29;20024;-76
2022/02/25 12:07:29;;;;;;;19.23;9.80;;;;;;;;;;4941279;29;20044;-74
2022/02/25 12:09:56;;;;;;;16.52;8.82;;;;;;;;;;4933021;29;20038;-75
2022/02/25 12:12:26;;;;;;;17.25;9.27;;;;;;;;;;4939836;29;20024;-76
2022/02/25 12:15:03;;;;;;;14.40;9.63;;;;;;;;;;4921257;29;20462;-75
2022/02/25 12:17:37;;;;;;;17.83;9.93;;;;;;;;;;4937251;29;20413;-76
2022/02/25 12:20:18;;;;;;;17.35;9.18;;;;;;;;;;4931529;29;20058;-74
2022/02/25 12:22:47;;;;;;;19.05;9.52;;;;;;;;;;4926075;29;20040;-74
2022/02/25 12:25:19;;;;;;;13.18;8.32;;;;;;;;;;4945649;29;20023;-76
2022/02/25 12:28:23;;;;;;;18.92;10.70;;;;;;;;;;4915459;29;20032;-79
2022/02/25 12:31:03;;;;;;;12.98;8.45;;;;;;;;;;4907259;29;20124;-76
2022/02/25 12:33:51;;;;;;;20.15;9.48;;;;;;;;;;4909483;29;20041;-76
2022/02/25 12:36:30;;;;;;;14.38;9.73;;;;;;;;;;4901598;29;20043;-74
2022/02/25 12:39:00;;;;;;;18.02;9.98;;;;;;;;;;4900452;29;20039;-78
2022/02/25 12:41:32;;;;;;;19.38;10.20;;;;;;;;;;4899934;29;20104;-75
2022/02/25 12:44:09;;;;;;;19.40;11.82;;;;;;;;;;4901728;29;20032;-74
2022/02/25 12:46:36;;;;;;;22.10;11.75;;;;;;;;;;4883502;29;20403;-77
2022/02/25 12:49:03;;;;;;;24.10;11.07;;;;;;;;;;4903885;29;20059;-75
2022/02/25 12:51:38;;;;;;;25.52;10.65;;;;;;;;;;4905882;29;20068;-76
2022/02/25 12:56:59;;;;;;;17.75;10.30;;;;;;;;;;5272768;23;20055;-75
2022/02/25 12:59:54;;;;;;;17.80;10.40;;;;;;;;;;4931287;29;20036;-76
2022/02/25 13:02:22;;;;;;;19.73;9.75;;;;;;;;;;4933165;29;20035;-77
2022/02/25 13:04:49;;;;;;;17.65;9.48;;;;;;;;;;4926114;29;20039;-78
2022/02/25 13:07:16;;;;;;;14.35;8.48;;;;;;;;;;4926507;29;20043;-78
2022/02/25 13:09:43;;;;;;;16.70;9.50;;;;;;;;;;4933329;29;20036;-78
2022/02/25 13:12:10;;;;;;;18.23;8.32;;;;;;;;;;4941685;29;20024;-78
2022/02/25 13:14:38;;;;;;;16.08;8.85;;;;;;;;;;4947560;29;20032;-73
2022/02/25 13:17:07;;;;;;;15.18;7.75;;;;;;;;;;4954833;29;20505;-75
2022/02/25 13:19:43;;;;;;;20.95;8.43;;;;;;;;;;4919575;29;20031;-74
2022/02/25 13:22:10;;;;;;;14.18;7.95;;;;;;;;;;4937679;29;20525;-77
2022/02/25 13:24:57;;;;;;;16.13;8.35;;;;;;;;;;4936672;29;20060;-75
2022/02/25 13:27:42;;;;;;;19.13;8.73;;;;;;;;;;4932507;29;20489;-74
2022/02/25 13:30:18;;;;;;;17.50;8.02;;;;;;;;;;4939765;29;20438;-75
2022/02/25 13:32:51;;;;;;;17.17;8.35;;;;;;;;;;4936441;29;20470;-74
2022/02/25 13:35:19;;;;;;;18.92;8.98;;;;;;;;;;4920585;29;20036;-77
2022/02/25 13:37:49;;;;;;;15.00;8.20;;;;;;;;;;4923984;29;20382;-74
2022/02/25 13:40:29;;;;;;;15.18;8.65;;;;;;;;;;4943069;29;20032;-75
2022/02/25 13:42:55;;;;;;;17.70;8.80;;;;;;;;;;4941976;29;20035;-75
2022/02/25 13:45:32;;;;;;;15.00;8.95;;;;;;;;;;4942545;29;20027;-75
2022/02/25 13:53:34;;;;;;;16.52;8.25;;;;;;;;;;4940698;29;20055;-76
2022/02/25 13:56:04;;;;;;;14.90;8.07;;;;;;;;;;4939468;29;20114;-74
2022/02/25 13:58:30;;;;;;;19.08;8.48;;;;;;;;;;4922966;29;20032;-78
2022/02/25 14:00:56;;;;;;;17.65;8.63;;;;;;;;;;4923423;29;20112;-73
2022/02/25 14:03:23;;;;;;;20.75;8.32;;;;;;;;;;4940423;29;20024;-72
2022/02/25 14:05:49;;;;;;;15.80;8.27;;;;;;;;;;4920849;29;20039;-74
2022/02/25 14:08:19;;;;;;;18.23;8.48;;;;;;;;;;4919511;29;20059;-74
2022/02/25 14:10:45;;;;;;;18.73;8.00;;;;;;;;;;4918609;29;20048;-75
2022/02/25 14:13:15;;;;;;;17.00;8.63;;;;;;;;;;4939924;29;20015;-74
2022/02/25 14:15:42;;;;;;;15.77;8.48;;;;;;;;;;4922186;29;20038;-74
2022/02/25 14:18:10;;;;;;;17.35;8.73;;;;;;;;;;4939570;29;20023;-75
2022/02/25 14:20:36;;;;;;;18.05;8.55;;;;;;;;;;4939888;29;20098;-74
2022/02/25 14:23:04;;;;;;;18.25;8.93;;;;;;;;;;4939162;29;20490;-74
2022/02/25 14:25:48;;;;;;;14.90;8.73;;;;;;;;;;4938056;29;21344;-78
2022/02/25 14:28:44;;;;;;;17.75;8.98;;;;;;;;;;4927979;29;20028;-71
2022/02/25 14:31:17;;;;;;;18.55;8.80;;;;;;;;;;4910892;29;20106;-75
2022/02/25 14:33:51;;;;;;;15.98;8.48;;;;;;;;;;4920142;29;20032;-70
2022/02/25 14:36:18;;;;;;;15.75;9.13;;;;;;;;;;4932587;29;20028;-73
2022/02/25 14:38:51;;;;;;;15.65;9.00;;;;;;;;;;4957110;29;20048;-72
2022/02/25 14:41:18;;;;;;;14.70;7.57;;;;;;;;;;4956181;29;20051;-72
2022/02/25 14:43:45;;;;;;;16.73;8.57;;;;;;;;;;4955116;29;20027;-72
2022/02/25 14:46:14;;;;;;;18.75;8.55;;;;;;;;;;4954060;29;20027;-73
2022/02/25 14:48:41;;;;;;;13.95;7.32;;;;;;;;;;4958899;29;20035;-71
2022/02/25 14:51:07;;;;;;;17.10;8.50;;;;;;;;;;4959233;29;20035;-72